createdAt,value
2019-05-16T00:01:40.176Z,77.20
2019-05-16T00:04:11.339Z,77.20
2019-05-16T00:06:42.846Z,76.80
2019-05-16T00:09:14.231Z,76.70
2019-05-16T00:11:45.185Z,77.40
2019-05-16T00:14:15.982Z,75.70
2019-05-16T00:16:48.363Z,76.90
2019-05-16T00:19:21.754Z,76.80
2019-05-16T00:21:54.077Z,77.30
2019-05-16T00:24:25.571Z,77.40
2019-05-16T00:26:58.039Z,76.40
2019-05-16T00:29:29.394Z,76.80
2019-05-16T00:32:00.064Z,76.50
2019-05-16T00:34:31.723Z,76.40
2019-05-16T00:37:02.608Z,76.70
2019-05-16T00:39:33.619Z,76.90
2019-05-16T00:42:04.273Z,76.80
2019-05-16T00:44:35.156Z,76.70
2019-05-16T00:47:08.499Z,77.30
2019-05-16T00:49:38.822Z,77.60
2019-05-16T00:52:09.638Z,77.10
2019-05-16T00:54:40.850Z,77.80
2019-05-16T00:57:12.364Z,78.00
2019-05-16T00:59:44.075Z,77.60
2019-05-16T01:02:18.136Z,76.90
2019-05-16T01:04:49.314Z,76.80
2019-05-16T01:07:20.656Z,77.00
2019-05-16T01:09:51.560Z,77.20
2019-05-16T01:12:22.127Z,76.90
2019-05-16T01:14:54.115Z,77.30
2019-05-16T01:17:25.022Z,77.70
2019-05-16T01:19:57.871Z,77.00
2019-05-16T01:22:28.979Z,76.90
2019-05-16T01:25:02.170Z,77.00
2019-05-16T01:27:32.831Z,76.90
2019-05-16T01:30:04.448Z,76.80
2019-05-16T01:32:35.458Z,77.50
2019-05-16T01:35:08.198Z,76.80
2019-05-16T01:37:39.419Z,77.50
2019-05-16T01:40:10.663Z,76.70
2019-05-16T01:42:41.572Z,76.50
2019-05-16T01:45:12.360Z,75.80
2019-05-16T01:47:43.303Z,76.80
2019-05-16T01:50:17.885Z,75.90
2019-05-16T01:52:48.872Z,75.30
2019-05-16T01:55:20.008Z,75.90
2019-05-16T01:57:51.105Z,76.10
2019-05-16T02:00:25.073Z,75.90
2019-05-16T02:02:54.446Z,76.60
2019-05-16T02:05:27.925Z,76.90
2019-05-16T02:07:58.440Z,76.70
2019-05-16T02:10:28.968Z,76.00
2019-05-16T02:12:59.671Z,75.70
2019-05-16T02:15:30.567Z,75.10
2019-05-16T02:18:01.270Z,74.10
2019-05-16T02:20:32.112Z,74.70
2019-05-16T02:23:02.823Z,75.10
2019-05-16T02:25:34.771Z,75.60
2019-05-16T02:28:05.692Z,74.70
2019-05-16T02:30:36.456Z,75.50
2019-05-16T02:33:06.997Z,75.10
2019-05-16T02:35:40.309Z,75.20
2019-05-16T02:38:11.432Z,74.90
2019-05-16T02:40:42.919Z,75.50
2019-05-16T02:43:13.533Z,74.80
2019-05-16T02:45:44.139Z,74.60
2019-05-16T02:48:15.639Z,74.70
2019-05-16T02:50:46.628Z,75.20
2019-05-16T02:53:17.904Z,74.30
2019-05-16T02:55:51.356Z,74.80
2019-05-16T02:58:23.438Z,74.80
2019-05-16T03:00:53.250Z,74.70
2019-05-16T03:03:24.366Z,74.10
2019-05-16T03:05:57.272Z,74.60
2019-05-16T03:08:31.794Z,74.50
2019-05-16T03:11:01.239Z,74.70
2019-05-16T03:13:33.631Z,74.70
2019-05-16T03:16:11.390Z,75.40
2019-05-16T03:18:41.563Z,75.30
2019-05-16T03:21:13.019Z,75.40
2019-05-16T03:23:44.049Z,75.60
2019-05-16T03:26:14.929Z,74.70
2019-05-16T03:28:46.061Z,75.10
2019-05-16T03:31:16.679Z,74.40
2019-05-16T03:33:52.363Z,75.80
2019-05-16T03:36:25.126Z,75.70
2019-05-16T03:38:54.478Z,75.30
2019-05-16T03:41:24.927Z,75.60
2019-05-16T03:43:55.941Z,76.10
2019-05-16T03:46:26.407Z,75.90
2019-05-16T03:48:57.428Z,76.40
2019-05-16T03:51:30.701Z,76.40
2019-05-16T03:54:02.887Z,76.10
2019-05-16T03:56:33.341Z,76.60
2019-05-16T03:59:04.295Z,76.60
2019-05-16T04:01:36.452Z,77.50
2019-05-16T04:04:07.466Z,76.80
2019-05-16T04:06:41.374Z,76.60
2019-05-16T04:09:12.277Z,77.10
2019-05-16T04:11:43.201Z,76.70
2019-05-16T04:14:14.008Z,77.70
2019-05-16T04:16:44.843Z,77.10
2019-05-16T04:19:15.986Z,77.00
2019-05-16T04:21:51.146Z,77.10
2019-05-16T04:24:21.634Z,77.20
2019-05-16T04:26:52.431Z,77.40
2019-05-16T04:29:23.039Z,78.10
2019-05-16T04:31:53.733Z,77.90
2019-05-16T04:34:24.369Z,77.70
2019-05-16T04:36:54.884Z,77.80
2019-05-16T04:39:25.460Z,77.80
2019-05-16T04:41:56.052Z,78.50
2019-05-16T04:44:30.639Z,78.10
2019-05-16T04:47:01.364Z,77.90
2019-05-16T04:49:32.299Z,78.40
2019-05-16T04:52:07.159Z,78.60
2019-05-16T04:54:41.514Z,78.20
2019-05-16T04:57:11.843Z,78.30
2019-05-16T04:59:42.840Z,78.40
2019-05-16T05:02:13.765Z,77.70
2019-05-16T05:04:44.929Z,78.10
2019-05-16T05:07:16.824Z,78.40
2019-05-16T05:09:54.112Z,78.30
2019-05-16T05:12:26.346Z,78.60
2019-05-16T05:15:01.344Z,78.50
2019-05-16T05:17:31.730Z,77.80
2019-05-16T05:20:02.661Z,77.60
2019-05-16T05:22:33.635Z,78.30
2019-05-16T05:25:04.541Z,78.30
2019-05-16T05:27:35.880Z,77.30
2019-05-16T05:30:10.502Z,77.80
2019-05-16T05:32:41.561Z,77.90
2019-05-16T05:35:14.055Z,77.30
2019-05-16T05:37:46.402Z,76.80
2019-05-16T05:40:17.205Z,76.60
2019-05-16T05:42:50.321Z,77.10
2019-05-16T05:45:21.912Z,76.90
2019-05-16T05:47:52.481Z,76.70
2019-05-16T05:50:23.107Z,76.30
2019-05-16T05:52:54.422Z,75.90
2019-05-16T05:55:26.734Z,76.30
2019-05-16T05:57:58.051Z,76.00
2019-05-16T06:00:31.160Z,75.70
2019-05-16T06:03:01.962Z,75.30
2019-05-16T06:05:32.867Z,73.70
2019-05-16T06:08:04.142Z,74.80
2019-05-16T06:10:34.716Z,74.50
2019-05-16T06:13:07.028Z,73.70
2019-05-16T06:15:39.876Z,74.00
2019-05-16T06:18:10.803Z,73.80
2019-05-16T06:20:41.632Z,72.90
2019-05-16T06:23:12.918Z,74.00
2019-05-16T06:25:43.518Z,72.30
2019-05-16T06:28:14.203Z,73.00
2019-05-16T06:30:45.225Z,71.50
2019-05-16T06:33:15.844Z,72.40
2019-05-16T06:35:46.754Z,71.90
2019-05-16T06:38:17.271Z,71.50
2019-05-16T06:40:52.648Z,71.20
2019-05-16T06:43:23.083Z,71.70
2019-05-16T06:45:54.260Z,71.10
2019-05-16T06:48:25.494Z,71.70
2019-05-16T06:51:02.841Z,70.20
2019-05-16T06:53:32.130Z,69.90
2019-05-16T06:56:02.692Z,70.80
2019-05-16T06:58:44.765Z,70.60
2019-05-16T07:01:06.236Z,71.10
2019-05-16T07:03:37.495Z,71.20
2019-05-16T07:06:09.811Z,69.50
2019-05-16T07:08:40.732Z,70.70
2019-05-16T07:11:11.848Z,71.10
2019-05-16T07:13:42.636Z,70.00
2019-05-16T07:16:13.724Z,70.70
2019-05-16T07:18:45.150Z,69.70
2019-05-16T07:21:16.023Z,69.30
2019-05-16T07:23:46.711Z,68.70
2019-05-16T07:26:17.365Z,67.20
2019-05-16T07:28:50.946Z,65.80
2019-05-16T07:31:22.588Z,66.00
2019-05-16T07:33:53.549Z,65.00
2019-05-16T07:36:25.945Z,66.90
2019-05-16T07:38:59.751Z,61.90
2019-05-16T07:41:31.144Z,61.80
2019-05-16T07:44:01.819Z,62.50
2019-05-16T07:46:36.780Z,60.90
2019-05-16T07:49:21.423Z,60.20
2019-05-16T07:52:02.100Z,61.90
2019-05-16T07:54:34.568Z,61.00
2019-05-16T07:57:16.198Z,60.60
2019-05-16T07:59:37.687Z,61.60
2019-05-16T08:02:10.873Z,61.60
2019-05-16T08:04:42.514Z,58.90
2019-05-16T08:07:14.174Z,59.70
2019-05-16T08:09:45.961Z,59.00
2019-05-16T08:14:53.071Z,58.90
2019-05-16T08:17:31.288Z,58.10
2019-05-16T08:20:01.932Z,57.20
2019-05-16T08:22:32.617Z,57.70
2019-05-16T08:25:03.224Z,56.70
2019-05-16T08:27:34.575Z,57.10
2019-05-16T08:30:06.083Z,57.90
2019-05-16T08:32:37.128Z,57.10
2019-05-16T08:35:11.131Z,57.20
2019-05-16T08:37:46.651Z,57.00
2019-05-16T08:40:14.915Z,57.10
2019-05-16T08:42:45.983Z,57.90
2019-05-16T08:45:20.995Z,57.90
2019-05-16T08:48:00.245Z,58.30
2019-05-16T08:50:10.028Z,60.70
2019-05-16T08:50:35.029Z,56.90
2019-05-16T08:53:05.202Z,56.80
2019-05-16T08:55:37.094Z,57.40
2019-05-16T08:58:13.267Z,58.00
2019-05-16T09:00:42.074Z,58.90
2019-05-16T09:03:13.180Z,59.60
2019-05-16T09:05:44.123Z,59.80
2019-05-16T09:08:14.729Z,59.20
2019-05-16T09:10:55.614Z,58.80
2019-05-16T09:13:18.170Z,59.50
2019-05-16T09:15:49.564Z,59.50
2019-05-16T09:18:20.234Z,59.30
2019-05-16T09:20:50.853Z,58.70
2019-05-16T09:23:21.487Z,59.00
2019-05-16T09:25:52.041Z,59.60
2019-05-16T09:28:23.445Z,59.00
2019-05-16T09:30:54.056Z,58.20
2019-05-16T09:33:27.027Z,57.90
2019-05-16T09:35:57.794Z,57.40
2019-05-16T09:38:29.444Z,56.90
2019-05-16T09:41:00.461Z,55.80
2019-05-16T09:43:31.153Z,56.10
2019-05-16T09:46:03.931Z,55.90
2019-05-16T09:48:37.725Z,55.80
2019-05-16T09:51:08.212Z,56.00
2019-05-16T09:53:38.783Z,55.70
2019-05-16T09:56:09.642Z,55.60
2019-05-16T09:58:40.632Z,55.80
2019-05-16T10:01:12.952Z,54.90
2019-05-16T10:03:47.491Z,55.90
2019-05-16T10:06:22.637Z,54.70
2019-05-16T10:09:02.418Z,54.80
2019-05-16T10:11:41.364Z,54.30
2019-05-16T10:14:11.997Z,54.40
2019-05-16T10:16:48.457Z,55.00
2019-05-16T10:19:21.890Z,54.60
2019-05-16T10:21:53.439Z,54.60
2019-05-16T10:24:26.688Z,53.90
2019-05-16T10:26:57.551Z,54.30
2019-05-16T10:29:29.234Z,53.10
2019-05-16T10:32:04.466Z,54.00
2019-05-16T10:34:41.585Z,52.90
2019-05-16T10:37:17.728Z,52.90
2019-05-16T10:39:49.475Z,52.50
2019-05-16T10:42:28.745Z,53.20
2019-05-16T10:45:16.918Z,53.50
2019-05-16T10:47:56.836Z,53.50
2019-05-16T10:50:27.742Z,53.70
2019-05-16T10:53:22.597Z,53.60
2019-05-16T10:55:33.484Z,53.70
2019-05-16T10:58:08.636Z,53.50
2019-05-16T11:01:07.611Z,53.40
2019-05-16T11:03:21.408Z,53.80
2019-05-16T11:06:03.069Z,53.80
2019-05-16T11:08:24.687Z,53.00
2019-05-16T11:10:57.642Z,53.60
2019-05-16T11:13:29.174Z,54.10
2019-05-16T11:16:01.261Z,53.10
2019-05-16T11:18:32.178Z,52.70
2019-05-16T11:21:05.564Z,52.50
2019-05-16T11:23:36.826Z,52.40
2019-05-16T11:26:07.487Z,52.60
2019-05-16T11:28:48.548Z,52.50
2019-05-16T11:31:18.979Z,51.30
2019-05-16T11:33:50.029Z,50.70
2019-05-16T11:36:21.492Z,50.70
2019-05-16T11:38:57.041Z,50.80
2019-05-16T11:41:27.730Z,50.10
2019-05-16T11:44:06.427Z,50.30
2019-05-16T11:46:48.740Z,49.70
2019-05-16T11:49:19.528Z,47.70
2019-05-16T11:51:50.198Z,46.20
2019-05-16T11:54:26.602Z,44.50
2019-05-16T11:56:58.842Z,42.60
2019-05-16T11:59:32.155Z,42.80
2019-05-16T12:02:06.087Z,43.10
2019-05-16T12:04:49.256Z,43.90
2019-05-16T12:07:47.979Z,45.70
2019-05-16T12:14:27.203Z,47.10
2019-05-16T12:17:28.263Z,47.80
2019-05-16T12:20:23.142Z,48.00
2019-05-16T12:23:27.559Z,49.30
2019-05-16T12:26:28.133Z,48.60
2019-05-16T12:29:28.221Z,49.20
2019-05-16T12:32:47.015Z,49.70
2019-05-16T12:35:39.645Z,50.10
2019-05-16T12:42:12.361Z,52.10
2019-05-16T12:45:07.012Z,52.30
2019-05-16T12:48:06.754Z,52.70
2019-05-16T12:51:01.300Z,53.00
2019-05-16T12:53:57.198Z,53.30
2019-05-16T12:57:01.887Z,53.20
2019-05-16T13:00:19.059Z,53.60
2019-05-16T13:03:13.159Z,53.60
2019-05-16T13:06:02.943Z,54.10
2019-05-16T13:08:53.610Z,53.70
2019-05-16T13:12:06.899Z,53.20
2019-05-16T13:15:01.418Z,52.70
2019-05-16T13:18:27.475Z,53.20
2019-05-16T13:21:14.347Z,53.70
2019-05-16T13:23:57.551Z,53.90
2019-05-16T13:26:29.210Z,53.50
2019-05-16T13:28:59.887Z,53.30
2019-05-16T13:31:31.075Z,53.30
2019-05-16T13:34:01.963Z,53.40
2019-05-16T13:36:32.659Z,53.50
2019-05-16T13:39:07.816Z,53.80
2019-05-16T13:41:38.069Z,53.90
2019-05-16T13:44:18.373Z,54.20
2019-05-16T13:46:41.366Z,54.60
2019-05-16T13:49:12.432Z,54.60
2019-05-16T13:51:43.099Z,54.50
2019-05-16T13:54:13.659Z,54.10
2019-05-16T13:56:49.423Z,53.70
2019-05-16T13:59:22.121Z,53.80
2019-05-16T14:01:52.629Z,55.00
2019-05-16T14:04:26.465Z,55.00
2019-05-16T14:06:58.777Z,54.80
2019-05-16T14:09:28.139Z,55.30
2019-05-16T14:11:59.685Z,55.40
2019-05-16T14:14:37.909Z,55.20
2019-05-16T14:17:02.878Z,55.20
2019-05-16T14:19:37.513Z,55.40
2019-05-16T14:22:08.489Z,55.60
2019-05-16T14:24:43.073Z,55.70
2019-05-16T14:27:14.443Z,56.00
2019-05-16T14:29:47.504Z,56.30
2019-05-16T14:32:19.638Z,55.60
2019-05-16T14:35:11.819Z,55.20
2019-05-16T14:37:46.691Z,54.70
2019-05-16T14:40:19.062Z,54.40
2019-05-16T14:42:50.494Z,54.20
2019-05-16T14:45:21.397Z,54.10
2019-05-16T14:47:52.249Z,53.80
2019-05-16T14:50:27.371Z,53.60
2019-05-16T14:52:57.065Z,53.10
2019-05-16T14:55:27.848Z,52.00
2019-05-16T14:57:58.434Z,51.20
2019-05-16T15:00:29.047Z,51.10
2019-05-16T15:02:59.584Z,50.70
2019-05-16T15:05:30.151Z,50.60
2019-05-16T15:08:00.857Z,50.00
2019-05-16T15:10:31.376Z,49.80
2019-05-16T15:13:02.572Z,49.80
2019-05-16T15:15:38.711Z,50.10
2019-05-16T15:18:10.603Z,50.10
2019-05-16T15:20:41.547Z,49.50
2019-05-16T15:23:12.230Z,49.20
2019-05-16T15:25:43.525Z,49.30
2019-05-16T15:28:16.979Z,48.90
2019-05-16T15:30:47.092Z,48.90
2019-05-16T15:33:19.732Z,48.80
2019-05-16T15:35:50.259Z,47.90
2019-05-16T15:38:21.207Z,48.10
2019-05-16T15:40:52.033Z,48.80
2019-05-16T15:43:22.627Z,48.90
2019-05-16T15:45:53.458Z,48.20
2019-05-16T15:48:27.322Z,47.60
2019-05-16T15:50:59.879Z,47.80
2019-05-16T15:53:31.503Z,48.10
2019-05-16T15:56:03.699Z,48.50
2019-05-16T15:58:38.825Z,49.00
2019-05-16T16:01:11.070Z,48.90
2019-05-16T16:03:42.189Z,49.20
2019-05-16T16:06:19.546Z,49.30
2019-05-16T16:08:55.905Z,49.50
2019-05-16T16:11:27.258Z,49.50
2019-05-16T16:14:00.220Z,50.20
2019-05-16T16:16:33.953Z,50.40
2019-05-16T16:19:06.597Z,50.80
2019-05-16T16:21:38.014Z,51.00
2019-05-16T16:24:09.544Z,51.30
2019-05-16T16:26:58.926Z,51.80
2019-05-16T16:29:29.733Z,52.00
2019-05-16T16:32:01.053Z,52.40
2019-05-16T16:34:31.830Z,52.20
2019-05-16T16:37:07.561Z,52.40
2019-05-16T16:39:39.258Z,52.70
2019-05-16T16:42:14.386Z,52.40
2019-05-16T16:44:48.462Z,52.30
2019-05-16T16:47:19.217Z,52.20
2019-05-16T16:49:52.045Z,52.10
2019-05-16T16:52:27.379Z,52.10
2019-05-16T16:54:58.089Z,51.30
2019-05-16T16:57:28.818Z,51.70
2019-05-16T17:00:01.613Z,52.30
2019-05-16T17:02:34.191Z,52.50
2019-05-16T17:05:10.899Z,52.50
2019-05-16T17:07:38.036Z,52.80
2019-05-16T17:10:09.371Z,52.90
2019-05-16T17:12:42.472Z,52.80
2019-05-16T17:15:17.124Z,53.00
2019-05-16T17:17:48.372Z,52.40
2019-05-16T17:20:19.195Z,52.20
2019-05-16T17:22:49.734Z,52.40
2019-05-16T17:25:20.400Z,52.10
2019-05-16T17:27:51.315Z,52.50
2019-05-16T17:30:24.763Z,52.80
2019-05-16T17:32:56.645Z,52.70
2019-05-16T17:35:27.258Z,53.20
2019-05-16T17:38:00.255Z,52.70
2019-05-16T17:40:31.608Z,53.20
2019-05-16T17:43:03.477Z,53.00
2019-05-16T17:45:34.453Z,52.80
2019-05-16T17:48:07.877Z,52.80
2019-05-16T17:50:39.272Z,53.30
2019-05-16T17:53:10.446Z,53.70
2019-05-16T17:55:41.451Z,54.20
2019-05-16T17:58:13.189Z,53.80
2019-05-16T18:00:43.939Z,54.10
2019-05-16T18:03:17.126Z,53.70
2019-05-16T18:05:47.623Z,53.70
2019-05-16T18:08:20.639Z,53.80
2019-05-16T18:10:51.458Z,53.60
2019-05-16T18:13:22.197Z,53.90
2019-05-16T18:15:53.697Z,53.90
2019-05-16T18:18:27.265Z,54.10
2019-05-16T18:21:02.180Z,54.50
2019-05-16T18:23:33.675Z,54.90
2019-05-16T18:26:04.453Z,55.40
2019-05-16T18:28:36.839Z,55.80
2019-05-16T18:31:08.446Z,56.00
2019-05-16T18:33:39.187Z,56.40
2019-05-16T18:36:10.732Z,56.10
2019-05-16T18:38:42.261Z,56.00
2019-05-16T18:41:16.617Z,56.40
2019-05-16T18:43:48.359Z,56.70
2019-05-16T18:46:18.996Z,57.10
2019-05-16T18:48:49.722Z,57.40
2019-05-16T18:51:23.246Z,57.70
2019-05-16T18:53:54.460Z,57.80
2019-05-16T18:56:27.222Z,58.20
2019-05-16T18:58:58.324Z,58.80
2019-05-16T19:01:29.188Z,58.90
2019-05-16T19:04:00.089Z,59.00
2019-05-16T19:06:31.085Z,58.90
2019-05-16T19:09:06.973Z,58.90
2019-05-16T19:11:36.961Z,59.30
2019-05-16T19:14:07.874Z,59.90
2019-05-16T19:16:38.686Z,59.90
2019-05-16T19:19:09.552Z,60.10
2019-05-16T19:21:40.035Z,60.30
2019-05-16T19:24:11.258Z,60.80
2019-05-16T19:26:42.204Z,61.20
2019-05-16T19:29:14.621Z,61.90
2019-05-16T19:31:48.531Z,62.20
2019-05-16T19:34:19.047Z,62.40
2019-05-16T19:36:49.757Z,62.40
2019-05-16T19:39:20.399Z,62.20
2019-05-16T19:41:51.354Z,62.00
2019-05-16T19:44:22.195Z,62.10
2019-05-16T19:46:53.358Z,62.00
2019-05-16T19:49:24.427Z,61.90
2019-05-16T19:51:56.550Z,62.10
2019-05-16T19:54:28.195Z,62.30
2019-05-16T19:56:59.063Z,62.20
2019-05-16T19:59:29.793Z,62.00
2019-05-16T20:02:00.738Z,62.20
2019-05-16T20:04:31.498Z,62.30
2019-05-16T20:07:02.680Z,62.10
2019-05-16T20:09:33.441Z,62.20
2019-05-16T20:12:07.719Z,63.00
2019-05-16T20:14:37.995Z,62.90
2019-05-16T20:17:11.571Z,63.30
2019-05-16T20:19:42.433Z,63.20
2019-05-16T20:22:16.566Z,63.90
2019-05-16T20:24:47.469Z,64.20
2019-05-16T20:27:19.531Z,64.90
2019-05-16T20:29:50.532Z,65.20
2019-05-16T20:32:22.771Z,65.00
2019-05-16T20:35:02.811Z,64.30
2019-05-16T20:37:42.428Z,64.40
2019-05-16T20:40:14.526Z,64.50
2019-05-16T20:42:47.993Z,64.50
2019-05-16T20:45:20.103Z,64.60
2019-05-16T20:47:58.445Z,65.10
2019-05-16T20:50:26.247Z,65.30
2019-05-16T20:52:57.600Z,65.20
2019-05-16T20:55:30.587Z,65.20
2019-05-16T20:58:01.272Z,65.40
2019-05-16T21:00:32.725Z,65.60
2019-05-16T21:03:03.558Z,66.10
2019-05-16T21:05:34.116Z,65.60
2019-05-16T21:08:06.500Z,66.00
2019-05-16T21:10:37.328Z,66.20
2019-05-16T21:13:08.310Z,65.80
2019-05-16T21:15:41.615Z,65.80
2019-05-16T21:18:12.209Z,65.40
2019-05-16T21:20:42.899Z,65.50
2019-05-16T21:23:13.804Z,65.10
2019-05-16T21:25:46.624Z,65.00
2019-05-16T21:28:19.791Z,64.60
2019-05-16T21:30:50.257Z,64.20
2019-05-16T21:33:21.094Z,64.40
2019-05-16T21:35:52.032Z,64.40
2019-05-16T21:38:22.797Z,64.40
2019-05-16T21:40:58.108Z,64.30
2019-05-16T21:43:27.121Z,64.40
2019-05-16T21:45:57.951Z,64.30
2019-05-16T21:48:31.010Z,64.30
2019-05-16T21:51:01.944Z,64.40
2019-05-16T21:53:33.198Z,65.30
2019-05-16T21:56:06.878Z,66.00
2019-05-16T21:58:37.352Z,66.00
2019-05-16T22:01:11.521Z,66.20
2019-05-16T22:03:42.651Z,65.60
2019-05-16T22:06:13.411Z,65.70
2019-05-16T22:08:44.132Z,66.10
2019-05-16T22:11:17.086Z,66.10
2019-05-16T22:13:49.229Z,66.20
2019-05-16T22:16:19.871Z,66.00
2019-05-16T22:18:53.059Z,66.20
2019-05-16T22:21:23.753Z,65.80
2019-05-16T22:23:54.509Z,65.80
2019-05-16T22:26:27.028Z,66.00
2019-05-16T22:28:57.612Z,65.30
2019-05-16T22:31:29.157Z,65.10
2019-05-16T22:34:00.233Z,65.10
2019-05-16T22:36:32.862Z,65.30
2019-05-16T22:39:06.795Z,65.60
2019-05-16T22:41:37.266Z,66.00
2019-05-16T22:44:08.869Z,66.10
2019-05-16T22:46:40.930Z,66.30
2019-05-16T22:49:11.679Z,65.90
2019-05-16T22:51:42.421Z,66.10
2019-05-16T22:54:19.804Z,66.50
2019-05-16T22:56:58.805Z,66.50
2019-05-16T22:59:30.214Z,66.50
2019-05-16T23:02:03.319Z,66.60
2019-05-16T23:04:33.998Z,66.80
2019-05-16T23:07:06.995Z,67.20
2019-05-16T23:09:39.533Z,67.10
2019-05-16T23:12:10.057Z,67.30
2019-05-16T23:14:40.976Z,67.40
2019-05-16T23:17:12.215Z,67.70
2019-05-16T23:19:43.548Z,67.60
2019-05-16T23:22:14.110Z,67.50
2019-05-16T23:24:46.365Z,67.40
2019-05-16T23:27:17.549Z,69.00
2019-05-16T23:29:51.227Z,68.30
2019-05-16T23:32:21.864Z,68.30
2019-05-16T23:34:54.032Z,68.30
2019-05-16T23:37:24.516Z,68.30
2019-05-16T23:39:56.858Z,68.50
2019-05-16T23:42:27.629Z,68.40
2019-05-16T23:44:58.183Z,68.20
2019-05-16T23:47:29.330Z,68.40
2019-05-16T23:50:00.233Z,68.60
2019-05-16T23:52:30.814Z,69.10
2019-05-16T23:55:01.922Z,68.60
2019-05-16T23:57:32.451Z,68.20
